Time;durP1;ratioP1;P1;durP2;ratioP2;P2;SDS_P1;SDS_P2;PMS_P1;PMS_P2;Temp;Humidity;BMP_temperature;BMP_pressure;BME280_temperature;BME280_humidity;BME280_pressure;Samples;Min_cycle;Max_cycle;Signal;HPM_P1;HPM_P2
2022/10/26 00:01:08;;;;;;;5.72;1.10;;;;;;;15.18;57.86;100059.94;4444157;32;33930;-65
2022/10/26 00:03:37;;;;;;;2.00;1.27;;;;;;;15.02;57.55;100055.06;4451121;32;34023;-66
2022/10/26 00:06:08;;;;;;;1.17;1.08;;;;;;;15.07;57.16;100063.59;4449539;32;34958;-67
2022/10/26 00:08:36;;;;;;;2.42;1.85;;;;;;;14.81;57.63;100067.75;4441934;32;34136;-66
2022/10/26 00:11:05;;;;;;;3.37;1.65;;;;;;;15.08;57.08;100059.91;4451030;32;34015;-65
2022/10/26 00:13:33;;;;;;;3.55;1.90;;;;;;;15.03;57.59;100067.56;4447749;32;33796;-66
2022/10/26 00:16:06;;;;;;;3.80;2.67;;;;;;;14.94;57.76;100054.91;4448315;32;33590;-64
2022/10/26 00:18:34;;;;;;;1.48;1.12;;;;;;;15.10;57.03;100057.09;4447272;32;33509;-66
2022/10/26 00:21:03;;;;;;;2.05;1.55;;;;;;;15.06;57.22;100067.31;4444652;32;33602;-65
2022/10/26 00:23:31;;;;;;;4.95;2.83;;;;;;;15.17;56.93;100062.78;4450222;32;34297;-62
2022/10/26 00:25:59;;;;;;;1.55;1.40;;;;;;;15.26;56.86;100067.37;4449444;32;33433;-63
2022/10/26 00:28:27;;;;;;;4.05;2.55;;;;;;;15.26;57.11;100065.53;4447473;32;33222;-64
2022/10/26 00:30:54;;;;;;;3.83;2.28;;;;;;;15.07;58.14;100068.16;4452025;32;34985;-63
2022/10/26 00:33:21;;;;;;;8.07;2.70;;;;;;;15.14;58.10;100069.31;4449707;32;34287;-64
2022/10/26 00:35:53;;;;;;;5.43;3.45;;;;;;;15.21;57.62;100064.22;4451240;32;34179;-65
2022/10/26 00:38:20;;;;;;;3.42;1.75;;;;;;;15.14;57.58;100066.63;4449594;32;34721;-63
2022/10/26 00:40:48;;;;;;;4.62;2.08;;;;;;;15.21;57.20;100064.22;4442404;32;205449;-63
2022/10/26 00:43:19;;;;;;;1.90;1.75;;;;;;;15.19;57.47;100066.22;4446091;32;33849;-63
2022/10/26 00:45:48;;;;;;;2.53;1.75;;;;;;;15.29;57.09;100056.31;4438765;32;33113;-66
2022/10/26 00:48:22;;;;;;;3.50;1.67;;;;;;;15.00;57.99;100050.81;4439104;32;34602;-66
2022/10/26 00:50:50;;;;;;;6.05;2.03;;;;;;;15.09;57.86;100052.72;4442116;32;33864;-63
2022/10/26 00:53:18;;;;;;;5.43;2.50;;;;;;;15.24;56.88;100053.16;4438219;32;33963;-63
2022/10/26 00:55:48;;;;;;;4.32;2.60;;;;;;;15.23;56.52;100056.84;4437304;32;32559;-63
2022/10/26 00:58:16;;;;;;;2.25;1.33;;;;;;;15.26;55.72;100056.59;4447122;32;33559;-63
2022/10/26 01:00:44;;;;;;;7.37;2.72;;;;;;;15.21;55.82;100056.12;4445069;32;33965;-63
2022/10/26 01:03:12;;;;;;;1.35;0.90;;;;;;;15.08;55.79;100046.44;4445948;32;34682;-65
2022/10/26 01:05:41;;;;;;;2.45;1.37;;;;;;;14.89;56.08;100055.31;4448516;32;33493;-63
2022/10/26 01:08:09;;;;;;;3.03;1.33;;;;;;;14.50;57.52;100051.50;4439238;32;33452;-65
2022/10/26 01:10:37;;;;;;;2.40;1.65;;;;;;;14.72;56.86;100049.69;4441291;32;32362;-64
2022/10/26 01:13:05;;;;;;;5.28;2.47;;;;;;;14.60;57.38;100054.28;4441381;32;34083;-63
2022/10/26 01:15:49;;;;;;;5.25;2.53;;;;;;;14.59;57.33;100052.59;4449423;32;34821;-63
2022/10/26 01:18:34;;;;;;;4.10;1.83;;;;;;;14.75;56.65;100049.41;4449765;32;33587;-64
2022/10/26 01:21:23;;;;;;;2.53;1.65;;;;;;;14.68;56.83;100047.25;4449443;32;33716;-63
2022/10/26 01:24:10;;;;;;;1.60;1.37;;;;;;;14.72;56.85;100055.06;4447159;32;32995;-63
2022/10/26 01:26:56;;;;;;;2.80;2.10;;;;;;;14.71;56.41;100061.47;4451729;32;34221;-63
2022/10/26 01:29:58;;;;;;;2.22;1.48;;;;;;;14.63;56.55;100048.62;4450703;32;33689;-65
2022/10/26 01:32:30;;;;;;;2.78;1.65;;;;;;;14.60;56.73;100052.44;4450234;32;33815;-63
2022/10/26 01:35:10;;;;;;;4.37;1.75;;;;;;;14.64;57.43;100048.53;4447866;32;35094;-64
2022/10/26 01:37:44;;;;;;;2.75;1.45;;;;;;;14.68;57.76;100049.09;4438158;32;32801;-66
2022/10/26 01:40:20;;;;;;;3.35;2.37;;;;;;;14.69;57.33;100050.81;4436374;32;33475;-63
2022/10/26 01:42:53;;;;;;;2.00;1.23;;;;;;;14.74;57.01;100053.13;4451137;32;33509;-63
2022/10/26 01:45:21;;;;;;;3.58;1.67;;;;;;;14.73;56.95;100046.00;4434889;32;35263;-66
2022/10/26 01:47:49;;;;;;;4.40;2.10;;;;;;;14.59;57.11;100044.50;4444815;32;34934;-62
2022/10/26 01:50:18;;;;;;;2.75;2.05;;;;;;;14.75;56.76;100046.72;4438033;32;34436;-66
2022/10/26 01:52:49;;;;;;;2.25;1.98;;;;;;;14.64;56.77;100045.84;4428257;32;33599;-64
2022/10/26 01:55:42;;;;;;;1.40;1.30;;;;;;;14.58;56.71;100040.97;4437816;32;35089;-64
2022/10/26 01:58:34;;;;;;;6.93;1.60;;;;;;;14.31;57.67;100041.47;4439261;32;33629;-65
2022/10/26 02:01:28;;;;;;;2.25;1.55;;;;;;;14.24;58.23;100034.91;4444272;32;33258;-66
2022/10/26 02:04:09;;;;;;;3.78;2.30;;;;;;;14.37;57.97;100035.56;4445448;32;33840;-63
2022/10/26 02:06:48;;;;;;;6.85;1.62;;;;;;;14.44;57.84;100027.78;4442282;32;34213;-66
2022/10/26 02:09:31;;;;;;;3.50;2.05;;;;;;;14.61;57.32;100037.16;4447797;32;32592;-65
2022/10/26 02:12:02;;;;;;;2.30;1.15;;;;;;;14.64;56.68;100032.34;4421312;32;32859;-65
2022/10/26 02:14:50;;;;;;;3.53;1.85;;;;;;;14.60;56.29;100036.28;4438247;32;34960;-66
2022/10/26 02:17:31;;;;;;;5.28;2.15;;;;;;;14.70;55.79;100028.25;4440766;32;34031;-65
2022/10/26 02:20:03;;;;;;;1.35;0.75;;;;;;;14.63;55.56;100029.78;4435944;32;33893;-66
2022/10/26 02:22:43;;;;;;;6.70;2.05;;;;;;;14.70;55.40;100033.63;4448154;32;32944;-65
2022/10/26 02:25:16;;;;;;;1.45;0.93;;;;;;;14.53;55.83;100026.19;4444925;32;33712;-67
2022/10/26 02:27:46;;;;;;;2.55;1.27;;;;;;;14.61;55.83;100037.16;4444469;32;34184;-68
2022/10/26 02:30:15;;;;;;;5.25;1.50;;;;;;;14.57;56.20;100033.00;4437080;32;34575;-67
2022/10/26 02:32:47;;;;;;;1.52;0.95;;;;;;;14.40;57.17;100029.91;4447212;32;33892;-65
2022/10/26 02:35:16;;;;;;;2.95;1.70;;;;;;;14.34;57.64;100027.75;4420243;32;33800;-66
2022/10/26 02:37:45;;;;;;;5.28;2.08;;;;;;;14.05;58.14;100034.75;4432975;32;33610;-67
2022/10/26 02:40:17;;;;;;;3.33;1.73;;;;;;;14.28;57.71;100041.72;4446752;32;32054;-65
2022/10/26 02:42:45;;;;;;;1.52;1.20;;;;;;;14.30;57.64;100037.06;4444651;32;32906;-65
2022/10/26 02:45:18;;;;;;;2.62;1.48;;;;;;;14.33;57.38;100041.34;4446384;32;34770;-68
2022/10/26 02:47:45;;;;;;;4.05;1.62;;;;;;;14.42;56.92;100038.72;4450008;32;33648;-64
2022/10/26 02:50:14;;;;;;;1.90;1.65;;;;;;;14.28;57.68;100044.41;4444856;32;32615;-67
2022/10/26 02:52:51;;;;;;;2.08;1.48;;;;;;;14.38;57.50;100052.56;4450342;32;34984;-65
2022/10/26 02:55:24;;;;;;;2.40;1.55;;;;;;;14.42;57.09;100052.19;4446745;32;33783;-65
2022/10/26 02:57:59;;;;;;;8.00;1.65;;;;;;;14.49;56.73;100052.50;4428597;32;34313;-65
2022/10/26 03:00:28;;;;;;;2.92;1.27;;;;;;;14.53;56.48;100056.66;4442472;32;33954;-65
2022/10/26 03:02:57;;;;;;;1.20;0.98;;;;;;;14.34;57.76;100051.13;4435902;32;33251;-64
2022/10/26 03:05:26;;;;;;;1.02;0.93;;;;;;;14.19;59.07;100054.16;4446308;32;33532;-68
2022/10/26 03:07:55;;;;;;;0.88;0.57;;;;;;;14.42;58.90;100056.72;4445307;32;33748;-68
2022/10/26 03:10:22;;;;;;;0.98;0.77;;;;;;;14.47;58.90;100062.53;4439670;32;34052;-64
2022/10/26 03:12:50;;;;;;;2.10;1.33;;;;;;;14.23;59.72;100061.97;4448070;32;33588;-67
2022/10/26 03:15:19;;;;;;;1.25;1.15;;;;;;;14.34;59.08;100054.66;4446990;32;35045;-65
2022/10/26 03:17:46;;;;;;;1.08;0.85;;;;;;;14.45;58.63;100049.22;4439959;32;36063;-66
2022/10/26 03:20:14;;;;;;;1.40;1.15;;;;;;;14.55;57.98;100060.09;4443758;32;33640;-68
2022/10/26 03:22:42;;;;;;;2.08;1.33;;;;;;;14.60;57.63;100065.91;4444488;32;34111;-66
2022/10/26 03:25:10;;;;;;;1.85;1.50;;;;;;;14.68;57.24;100070.66;4448638;32;34096;-69
2022/10/26 03:27:37;;;;;;;1.80;1.08;;;;;;;14.68;57.01;100066.12;4447043;32;35033;-65
2022/10/26 03:30:06;;;;;;;1.90;1.20;;;;;;;14.71;56.75;100066.84;4448324;32;34083;-68
2022/10/26 03:32:33;;;;;;;3.28;1.77;;;;;;;14.72;56.78;100071.25;4449074;32;34445;-65
2022/10/26 03:35:01;;;;;;;1.40;1.05;;;;;;;14.39;58.62;100075.81;4443614;32;32913;-66
2022/10/26 03:37:28;;;;;;;3.37;1.77;;;;;;;13.98;59.59;100074.78;4447494;32;33672;-66
2022/10/26 03:39:56;;;;;;;1.98;1.20;;;;;;;13.89;59.91;100076.41;4449139;32;33751;-66
2022/10/26 03:42:23;;;;;;;3.92;1.85;;;;;;;13.89;59.74;100075.56;4449475;32;33074;-68
2022/10/26 03:44:51;;;;;;;1.05;1.00;;;;;;;13.84;59.99;100078.66;4448491;32;33933;-67
2022/10/26 03:47:18;;;;;;;0.90;0.85;;;;;;;13.55;60.97;100078.34;4442838;32;33763;-66
2022/10/26 03:49:46;;;;;;;3.15;1.98;;;;;;;13.61;60.29;100074.28;4441803;32;34487;-64
2022/10/26 03:52:13;;;;;;;0.47;0.47;;;;;;;13.52;60.66;100073.22;4434349;32;32831;-66
2022/10/26 03:54:41;;;;;;;2.47;1.60;;;;;;;13.43;61.72;100074.81;4436082;32;34606;-65
2022/10/26 03:57:08;;;;;;;2.72;1.92;;;;;;;13.16;62.93;100082.38;4435457;32;34010;-66
2022/10/26 03:59:36;;;;;;;1.70;1.20;;;;;;;13.12;63.06;100076.41;4439801;32;33933;-67
2022/10/26 04:02:03;;;;;;;19.00;3.00;;;;;;;13.37;62.47;100085.22;4435026;32;34679;-65
2022/10/26 04:04:31;;;;;;;1.37;0.98;;;;;;;13.37;62.62;100086.06;4434614;32;34836;-67
2022/10/26 04:06:59;;;;;;;1.55;1.42;;;;;;;13.37;62.73;100091.44;4443048;32;34124;-66
2022/10/26 04:09:26;;;;;;;0.88;0.82;;;;;;;13.55;63.32;100090.91;4443772;32;33429;-65
2022/10/26 04:11:54;;;;;;;0.98;0.82;;;;;;;13.71;63.16;100084.19;4445939;32;33057;-64
2022/10/26 04:14:21;;;;;;;0.88;0.70;;;;;;;13.93;62.73;100083.25;4440630;32;33495;-65
2022/10/26 04:16:49;;;;;;;2.47;0.95;;;;;;;13.64;64.05;100088.37;4442879;32;33903;-64
2022/10/26 04:19:17;;;;;;;1.37;1.05;;;;;;;14.07;63.15;100083.94;4437360;32;33820;-66
2022/10/26 04:21:44;;;;;;;2.75;1.75;;;;;;;14.30;62.26;100077.47;4436538;32;33528;-63
2022/10/26 04:24:11;;;;;;;2.00;1.60;;;;;;;14.41;61.59;100079.22;4445935;32;35030;-64
2022/10/26 04:26:39;;;;;;;0.40;0.40;;;;;;;14.06;63.54;100079.53;4439104;32;35214;-64
2022/10/26 04:29:08;;;;;;;3.45;1.27;;;;;;;14.32;61.83;100088.97;4431921;32;33496;-65
2022/10/26 04:31:35;;;;;;;1.35;1.00;;;;;;;14.36;60.61;100081.47;4440063;32;33267;-64
2022/10/26 04:34:03;;;;;;;1.75;0.93;;;;;;;14.29;59.92;100074.91;4435918;32;34721;-67
2022/10/26 04:36:30;;;;;;;2.75;1.65;;;;;;;14.14;60.56;100077.91;4439303;32;33707;-67
2022/10/26 04:38:58;;;;;;;1.98;0.88;;;;;;;14.15;60.81;100070.66;4447537;32;33951;-69
2022/10/26 04:41:25;;;;;;;1.35;1.23;;;;;;;14.18;60.51;100071.25;4447972;32;33245;-64
2022/10/26 04:43:53;;;;;;;2.87;2.60;;;;;;;14.27;60.30;100074.19;4441064;32;35089;-66
2022/10/26 04:46:20;;;;;;;3.80;2.00;;;;;;;14.29;60.09;100066.84;4445120;32;34068;-65
2022/10/26 04:48:48;;;;;;;0.93;0.90;;;;;;;14.13;60.72;100078.03;4446853;32;34269;-66
2022/10/26 04:51:16;;;;;;;1.75;1.23;;;;;;;14.19;60.29;100075.69;4445067;32;33494;-64
2022/10/26 04:53:43;;;;;;;0.82;0.82;;;;;;;14.05;61.04;100078.66;4450209;32;34483;-67
2022/10/26 04:56:11;;;;;;;0.60;0.60;;;;;;;14.24;60.27;100071.75;4440234;32;33755;-66
2022/10/26 04:58:38;;;;;;;1.55;0.95;;;;;;;14.04;61.17;100078.81;4440914;32;33665;-65
2022/10/26 05:01:06;;;;;;;2.62;1.48;;;;;;;14.09;61.08;100074.75;4437771;32;33110;-65
2022/10/26 05:03:34;;;;;;;3.80;1.37;;;;;;;14.19;60.96;100070.31;4445243;32;35316;-67
2022/10/26 05:06:01;;;;;;;1.33;1.17;;;;;;;14.34;60.79;100075.34;4446241;32;32704;-67
2022/10/26 05:08:28;;;;;;;3.45;1.23;;;;;;;14.19;62.07;100067.63;4445569;32;33759;-65
2022/10/26 05:10:56;;;;;;;3.83;1.65;;;;;;;14.13;62.38;100065.44;4450503;32;33522;-65
2022/10/26 05:13:24;;;;;;;2.60;1.60;;;;;;;14.48;61.34;100068.78;4449927;32;33751;-65
2022/10/26 05:15:56;;;;;;;3.20;1.12;;;;;;;14.58;60.88;100062.53;4448473;32;32351;-65
2022/10/26 05:18:25;;;;;;;1.67;1.35;;;;;;;14.64;60.60;100072.78;4443221;32;34040;-65
2022/10/26 05:20:52;;;;;;;2.22;1.67;;;;;;;14.74;59.67;100071.97;4444416;32;32024;-65
2022/10/26 05:23:21;;;;;;;2.15;1.23;;;;;;;14.80;59.34;100087.56;4447933;32;35100;-66
2022/10/26 05:25:48;;;;;;;3.85;1.00;;;;;;;14.82;59.02;100086.47;4449436;32;34034;-64
2022/10/26 05:28:16;;;;;;;2.08;1.25;;;;;;;14.88;58.71;100094.00;4448338;32;34951;-65
2022/10/26 05:30:45;;;;;;;8.15;1.98;;;;;;;14.95;58.58;100096.19;4447677;32;34496;-65
2022/10/26 05:33:13;;;;;;;1.40;0.93;;;;;;;14.85;58.82;100096.12;4449898;32;33804;-66
2022/10/26 05:35:41;;;;;;;1.95;0.75;;;;;;;14.88;58.46;100094.00;4448082;32;35372;-66
2022/10/26 05:38:10;;;;;;;5.50;1.85;;;;;;;15.00;58.12;100094.78;4447226;32;34604;-63
2022/10/26 05:40:37;;;;;;;5.20;2.33;;;;;;;14.98;58.44;100099.47;4440890;32;32168;-69
2022/10/26 05:43:05;;;;;;;1.30;1.17;;;;;;;15.03;58.36;100104.47;4437855;32;32857;-68
2022/10/26 05:45:32;;;;;;;6.18;1.60;;;;;;;14.97;58.65;100111.22;4441059;32;32412;-68
2022/10/26 05:48:00;;;;;;;4.75;2.28;;;;;;;14.82;58.95;100099.94;4449707;32;34064;-70
2022/10/26 05:50:29;;;;;;;3.55;2.53;;;;;;;14.73;59.40;100105.28;4445023;32;33224;-65
2022/10/26 05:52:57;;;;;;;2.95;2.00;;;;;;;14.92;59.09;100108.06;4441602;32;33598;-65
2022/10/26 05:55:25;;;;;;;13.95;2.62;;;;;;;15.00;58.53;100110.97;4441522;32;34135;-65
2022/10/26 05:57:52;;;;;;;1.55;1.20;;;;;;;15.11;58.14;100110.88;4447658;32;33486;-65
2022/10/26 06:00:22;;;;;;;3.53;1.80;;;;;;;15.18;58.05;100111.19;4446680;32;33497;-65
2022/10/26 06:03:05;;;;;;;7.20;1.85;;;;;;;15.19;58.20;100112.91;4441951;32;33949;-64
2022/10/26 06:05:53;;;;;;;1.52;1.15;;;;;;;15.19;58.39;100115.59;4445564;32;32580;-65
2022/10/26 06:08:23;;;;;;;5.10;1.33;;;;;;;15.25;58.18;100119.56;4442552;32;34049;-63
2022/10/26 06:10:50;;;;;;;2.28;1.75;;;;;;;15.27;58.52;100120.31;4446114;32;32117;-65
2022/10/26 06:13:18;;;;;;;2.90;1.80;;;;;;;15.44;58.13;100121.50;4446389;32;35164;-64
2022/10/26 06:16:04;;;;;;;6.03;3.00;;;;;;;15.42;58.40;100126.19;4448170;32;32821;-64
2022/10/26 06:18:53;;;;;;;5.00;2.58;;;;;;;15.51;58.39;100130.78;4444250;32;35056;-66
2022/10/26 06:21:37;;;;;;;2.60;1.70;;;;;;;15.57;58.25;100138.31;4437727;32;33263;-66
2022/10/26 06:24:13;;;;;;;4.62;2.28;;;;;;;15.60;58.34;100130.81;4450033;32;34222;-64
2022/10/26 06:27:04;;;;;;;3.35;1.77;;;;;;;15.66;58.30;100139.31;4429017;32;33907;-65
2022/10/26 06:29:45;;;;;;;4.60;2.53;;;;;;;15.68;58.70;100143.62;4437393;32;34097;-66
2022/10/26 06:32:12;;;;;;;2.72;1.48;;;;;;;15.69;59.24;100145.31;4428548;32;32977;-65
2022/10/26 06:34:45;;;;;;;3.72;2.65;;;;;;;15.79;59.50;100151.63;4448893;32;33849;-66
2022/10/26 06:37:12;;;;;;;2.37;2.15;;;;;;;15.85;59.19;100147.50;4447855;32;35028;-65
2022/10/26 06:39:45;;;;;;;2.50;1.50;;;;;;;15.76;59.33;100145.63;4448793;32;33946;-66
2022/10/26 06:42:19;;;;;;;5.25;2.67;;;;;;;15.80;59.39;100147.94;4448681;32;33269;-65
2022/10/26 06:44:47;;;;;;;5.07;2.45;;;;;;;15.90;59.18;100145.25;4450736;32;32626;-65
2022/10/26 06:47:25;;;;;;;4.53;1.73;;;;;;;15.80;58.95;100147.06;4447694;32;32812;-67
2022/10/26 06:50:01;;;;;;;4.50;2.78;;;;;;;15.88;58.97;100149.91;4434637;32;34652;-66
2022/10/26 06:52:47;;;;;;;2.55;1.92;;;;;;;15.75;59.38;100144.78;4440464;32;33147;-66
2022/10/26 06:55:15;;;;;;;7.82;3.08;;;;;;;15.56;59.75;100158.19;4434599;32;32986;-65
2022/10/26 06:57:43;;;;;;;7.95;3.92;;;;;;;15.90;59.20;100149.78;4442846;32;33841;-66
2022/10/26 07:00:20;;;;;;;3.20;2.70;;;;;;;15.90;59.29;100153.34;4441880;32;33603;-66
2022/10/26 07:02:48;;;;;;;4.45;3.45;;;;;;;16.07;59.16;100152.66;4444230;32;34309;-67
2022/10/26 07:05:16;;;;;;;4.78;3.25;;;;;;;16.07;59.08;100152.66;4448688;32;33625;-65
2022/10/26 07:07:45;;;;;;;8.35;3.75;;;;;;;16.24;58.73;100161.94;4441883;32;35310;-67
2022/10/26 07:10:14;;;;;;;4.68;3.50;;;;;;;16.16;59.15;100152.81;4435070;32;33675;-66
2022/10/26 07:12:42;;;;;;;6.43;3.60;;;;;;;16.29;58.92;100154.25;4449483;32;33114;-66
2022/10/26 07:15:09;;;;;;;5.85;3.22;;;;;;;16.42;58.89;100156.66;4449502;32;35086;-66
2022/10/26 07:17:47;;;;;;;5.30;3.28;;;;;;;16.27;59.62;100156.22;4435707;32;32498;-65
2022/10/26 07:20:18;;;;;;;6.47;4.32;;;;;;;16.57;58.76;100159.78;4449402;32;35320;-66
2022/10/26 07:22:55;;;;;;;7.75;4.50;;;;;;;16.71;58.74;100158.50;4439477;32;33278;-65
2022/10/26 07:25:24;;;;;;;4.65;3.37;;;;;;;16.60;59.32;100156.81;4442884;32;34942;-66
2022/10/26 07:27:57;;;;;;;6.03;3.53;;;;;;;16.81;58.84;100151.25;4450991;32;33582;-66
2022/10/26 07:30:25;;;;;;;4.15;2.72;;;;;;;16.90;58.84;100166.59;4448697;32;33870;-66
2022/10/26 07:33:05;;;;;;;3.60;2.37;;;;;;;16.93;59.04;100165.47;4444108;32;32200;-65
2022/10/26 07:35:33;;;;;;;5.57;3.40;;;;;;;17.07;59.09;100170.41;4443961;32;33860;-67
2022/10/26 07:38:01;;;;;;;10.60;3.17;;;;;;;16.98;59.25;100168.56;4448469;32;35143;-66
2022/10/26 07:40:29;;;;;;;4.62;2.62;;;;;;;16.83;59.65;100167.34;4452983;32;33535;-65
2022/10/26 07:42:57;;;;;;;6.65;4.43;;;;;;;16.40;61.51;100166.75;4448990;32;34654;-64
2022/10/26 07:45:26;;;;;;;16.87;5.18;;;;;;;16.88;59.92;100168.59;4438906;32;33728;-66
2022/10/26 07:47:54;;;;;;;7.72;3.85;;;;;;;17.01;59.79;100170.97;4438175;32;35281;-65
2022/10/26 07:50:22;;;;;;;28.48;3.78;;;;;;;16.94;59.21;100162.59;4445096;32;34642;-66
2022/10/26 07:52:50;;;;;;;5.57;4.03;;;;;;;16.98;59.69;100161.34;4444879;32;33260;-66
2022/10/26 07:55:19;;;;;;;8.20;2.95;;;;;;;16.25;61.38;100162.78;4441377;32;33447;-65
2022/10/26 07:57:46;;;;;;;9.13;4.53;;;;;;;16.25;61.96;100169.03;4449571;32;34214;-65
2022/10/26 08:00:21;;;;;;;6.37;3.42;;;;;;;16.54;61.49;100162.78;4442754;32;34942;-66
2022/10/26 08:02:49;;;;;;;6.70;4.03;;;;;;;16.88;61.02;100154.22;4449134;32;34228;-65
2022/10/26 08:05:16;;;;;;;6.57;4.37;;;;;;;17.44;59.04;100167.72;4447696;32;33396;-65
2022/10/26 08:07:44;;;;;;;6.97;4.07;;;;;;;17.10;60.28;100169.28;4448681;32;35446;-67
2022/10/26 08:10:13;;;;;;;7.97;4.28;;;;;;;17.22;59.88;100158.13;4447781;32;33878;-66
2022/10/26 08:12:42;;;;;;;6.93;4.90;;;;;;;17.13;60.52;100168.97;4440677;32;34663;-65
2022/10/26 08:15:10;;;;;;;6.03;4.62;;;;;;;16.96;61.31;100168.72;4446971;32;35295;-66
2022/10/26 08:17:37;;;;;;;5.03;4.07;;;;;;;17.36;60.28;100170.31;4447028;32;33072;-64
2022/10/26 08:20:05;;;;;;;13.02;5.15;;;;;;;17.42;60.01;100172.44;4450549;32;35001;-66
2022/10/26 08:22:33;;;;;;;9.55;5.57;;;;;;;17.54;59.96;100177.66;4447008;32;34451;-66
2022/10/26 08:25:01;;;;;;;6.15;5.20;;;;;;;17.59;60.02;100184.34;4443726;32;33890;-66
2022/10/26 08:27:28;;;;;;;12.18;8.88;;;;;;;17.67;60.34;100167.34;4438999;32;34076;-66
2022/10/26 08:29:55;;;;;;;11.68;6.72;;;;;;;17.88;59.37;100173.41;4453388;32;33641;-64
2022/10/26 08:32:23;;;;;;;5.85;3.78;;;;;;;17.86;59.94;100171.84;4454696;32;34623;-66
2022/10/26 08:34:51;;;;;;;4.90;3.72;;;;;;;17.64;60.28;100162.22;4451381;32;32691;-65
2022/10/26 08:37:18;;;;;;;7.78;3.70;;;;;;;18.06;59.24;100167.16;4446285;32;35156;-66
2022/10/26 08:39:46;;;;;;;8.15;5.32;;;;;;;17.88;59.37;100170.69;4452757;32;32412;-65
2022/10/26 08:42:23;;;;;;;9.50;6.22;;;;;;;17.92;59.35;100177.50;4447179;32;34558;-65
2022/10/26 08:44:57;;;;;;;15.85;4.20;;;;;;;17.41;60.36;100176.16;4441489;32;33894;-67
2022/10/26 08:47:29;;;;;;;16.15;6.22;;;;;;;17.33;60.84;100180.59;4448560;32;34965;-65
2022/10/26 08:49:59;;;;;;;12.55;7.60;;;;;;;17.80;59.86;100185.97;4438494;32;33856;-65
2022/10/26 08:52:39;;;;;;;16.12;9.48;;;;;;;17.59;61.36;100197.00;4453953;32;33456;-64
2022/10/26 08:55:13;;;;;;;11.77;8.18;;;;;;;16.98;63.51;100201.91;4444231;32;33885;-64
2022/10/26 08:57:41;;;;;;;26.90;10.07;;;;;;;17.18;62.80;100197.31;4437260;32;33717;-66
2022/10/26 09:00:16;;;;;;;18.05;8.18;;;;;;;17.25;62.75;100202.97;4451777;32;34309;-67
2022/10/26 09:02:44;;;;;;;20.12;9.43;;;;;;;17.23;63.24;100192.28;4437592;32;33574;-65
2022/10/26 09:05:31;;;;;;;17.73;8.00;;;;;;;16.82;65.12;100208.88;4451992;32;33893;-65
2022/10/26 09:08:09;;;;;;;20.58;10.90;;;;;;;16.64;66.16;100200.63;4439878;32;33812;-65
2022/10/26 09:11:06;;;;;;;10.30;7.00;;;;;;;17.23;64.00;100191.44;4449144;32;33201;-65
2022/10/26 09:14:01;;;;;;;11.40;6.20;;;;;;;17.00;65.19;100196.34;4446436;32;33506;-65
2022/10/26 09:16:52;;;;;;;12.35;4.68;;;;;;;17.28;64.22;100196.44;4451414;32;33581;-64
2022/10/26 09:19:46;;;;;;;8.82;5.65;;;;;;;17.38;64.34;100195.38;4444400;32;34756;-66
2022/10/26 09:22:23;;;;;;;5.20;3.50;;;;;;;17.08;65.33;100198.28;4443699;32;34142;-63
2022/10/26 09:24:53;;;;;;;7.57;2.92;;;;;;;17.26;64.96;100196.56;4450202;32;34483;-65
2022/10/26 09:27:40;;;;;;;13.82;4.18;;;;;;;17.14;65.68;100206.72;4450550;32;33981;-66
2022/10/26 09:30:16;;;;;;;9.95;4.87;;;;;;;16.92;66.69;100215.16;4437901;32;34179;-65
2022/10/26 09:32:49;;;;;;;5.82;3.58;;;;;;;16.91;67.06;100216.97;4447726;32;33993;-65
2022/10/26 09:35:22;;;;;;;6.65;3.12;;;;;;;17.13;66.60;100213.09;4451672;32;33435;-65
2022/10/26 09:38:10;;;;;;;9.38;4.62;;;;;;;17.19;66.54;100220.63;4449304;32;32252;-65
2022/10/26 09:40:55;;;;;;;10.55;4.22;;;;;;;17.08;67.14;100209.13;4446052;32;33946;-65
2022/10/26 09:43:35;;;;;;;10.07;3.85;;;;;;;17.32;66.07;100219.47;4442811;32;34847;-65
2022/10/26 09:46:03;;;;;;;17.40;6.70;;;;;;;17.36;65.89;100215.47;4446643;32;33587;-65
2022/10/26 09:48:45;;;;;;;13.25;5.20;;;;;;;17.51;65.25;100211.28;4450745;32;33430;-65
2022/10/26 09:51:15;;;;;;;7.80;4.78;;;;;;;17.27;65.64;100219.03;4446019;32;33653;-64
2022/10/26 09:53:43;;;;;;;14.48;6.90;;;;;;;17.82;63.68;100222.75;4449736;32;33923;-64
2022/10/26 09:56:14;;;;;;;12.57;5.47;;;;;;;17.85;63.60;100225.16;4431177;32;32039;-65
2022/10/26 09:58:47;;;;;;;11.20;6.20;;;;;;;17.99;62.91;100226.50;4443940;32;33591;-64
2022/10/26 10:01:32;;;;;;;12.57;6.40;;;;;;;17.56;63.55;100224.38;4431533;32;34030;-66
2022/10/26 10:04:12;;;;;;;19.25;7.18;;;;;;;17.65;63.47;100229.75;4447523;32;33695;-65
2022/10/26 10:06:40;;;;;;;9.63;5.50;;;;;;;17.33;64.73;100232.84;4445117;32;34123;-65
2022/10/26 10:09:11;;;;;;;19.75;5.53;;;;;;;17.14;65.64;100222.94;4439737;32;33530;-65
2022/10/26 10:12:01;;;;;;;15.50;7.90;;;;;;;17.73;63.69;100231.72;4443181;32;33803;-64
2022/10/26 10:14:32;;;;;;;8.52;4.60;;;;;;;17.81;63.23;100226.44;4431269;32;32545;-66
2022/10/26 10:17:18;;;;;;;10.38;5.18;;;;;;;17.79;63.26;100227.59;4444323;32;33352;-65
2022/10/26 10:19:46;;;;;;;11.40;5.68;;;;;;;17.88;62.67;100232.97;4452946;32;34044;-65
2022/10/26 10:22:13;;;;;;;8.27;4.95;;;;;;;18.09;62.30;100223.72;4442599;32;33941;-64
2022/10/26 10:24:42;;;;;;;13.50;6.55;;;;;;;18.41;61.21;100235.94;4444996;32;34755;-63
2022/10/26 10:27:16;;;;;;;11.20;5.90;;;;;;;18.18;61.84;100232.81;4449295;32;33219;-64
2022/10/26 10:29:46;;;;;;;9.98;5.50;;;;;;;18.32;61.24;100224.16;4449831;32;34110;-64
2022/10/26 10:32:22;;;;;;;9.07;5.07;;;;;;;18.49;60.60;100226.03;4453281;32;34062;-63
2022/10/26 10:34:51;;;;;;;7.93;5.05;;;;;;;18.21;61.10;100222.53;4453670;32;34923;-66
2022/10/26 10:37:29;;;;;;;9.02;4.93;;;;;;;18.06;61.69;100229.44;4450419;32;34443;-64
2022/10/26 10:39:57;;;;;;;13.02;5.87;;;;;;;17.96;62.02;100228.66;4444577;32;33903;-65
2022/10/26 10:42:28;;;;;;;10.02;5.62;;;;;;;18.05;61.83;100227.75;4441337;32;35042;-65
2022/10/26 10:44:56;;;;;;;13.38;6.93;;;;;;;17.74;63.42;100224.44;4442005;32;33935;-63
2022/10/26 10:47:27;;;;;;;11.60;6.37;;;;;;;18.32;61.56;100227.72;4452084;32;33540;-64
2022/10/26 10:50:03;;;;;;;12.48;8.73;;;;;;;18.01;62.23;100223.63;4448188;32;34010;-64
2022/10/26 10:52:33;;;;;;;9.25;6.15;;;;;;;17.92;62.75;100218.12;4438493;32;33903;-64
2022/10/26 10:55:12;;;;;;;12.68;8.32;;;;;;;18.68;60.44;100216.03;4439053;32;33736;-64
2022/10/26 10:57:42;;;;;;;11.02;5.32;;;;;;;18.48;61.29;100218.91;4445138;32;34544;-65
2022/10/26 11:00:11;;;;;;;7.53;4.22;;;;;;;18.22;62.14;100216.09;4438536;32;34960;-65
2022/10/26 11:03:07;;;;;;;7.07;5.20;;;;;;;18.27;62.30;100211.09;4446018;32;35179;-64
2022/10/26 11:05:57;;;;;;;7.07;4.55;;;;;;;18.69;60.59;100205.06;4441630;32;33720;-66
2022/10/26 11:08:29;;;;;;;16.37;6.22;;;;;;;18.59;60.73;100201.56;4447059;32;32005;-64
2022/10/26 11:11:01;;;;;;;8.75;5.47;;;;;;;18.71;60.89;100210.31;4421114;32;32366;-64
2022/10/26 11:13:33;;;;;;;6.95;4.40;;;;;;;18.82;60.46;100205.53;4437286;32;32272;-65
2022/10/26 11:16:10;;;;;;;6.05;3.65;;;;;;;18.80;60.33;100195.84;4438021;32;34089;-64
2022/10/26 11:19:03;;;;;;;8.13;5.82;;;;;;;18.80;60.64;100203.97;4450967;32;32268;-67
2022/10/26 11:21:36;;;;;;;11.75;7.05;;;;;;;18.70;60.83;100195.91;4444383;32;33995;-66
2022/10/26 11:24:22;;;;;;;9.98;6.05;;;;;;;18.97;60.26;100204.97;4451806;32;34305;-64
2022/10/26 11:26:55;;;;;;;12.15;5.18;;;;;;;18.98;60.45;100209.41;4449192;32;33972;-68
2022/10/26 11:29:23;;;;;;;10.25;6.47;;;;;;;19.13;59.90;100194.22;4451759;32;33525;-69
2022/10/26 11:32:12;;;;;;;16.08;7.07;;;;;;;18.98;60.56;100195.84;4444077;32;32877;-69
2022/10/26 11:34:45;;;;;;;15.32;8.88;;;;;;;18.94;60.50;100195.31;4444297;32;34033;-69
2022/10/26 11:37:18;;;;;;;11.88;6.07;;;;;;;18.84;60.83;100189.97;4444403;32;32500;-69
2022/10/26 11:40:00;;;;;;;8.50;4.30;;;;;;;19.42;59.23;100193.94;4450553;32;33829;-69
2022/10/26 11:42:45;;;;;;;8.90;4.80;;;;;;;18.87;61.28;100182.50;4451663;32;34738;-69
2022/10/26 11:45:19;;;;;;;;;;;;;;;19.05;60.66;100186.88;4445653;32;33844;-69
2022/10/26 11:47:59;;;;;;;12.30;6.80;;;;;;;18.83;61.24;100180.09;4438170;32;33932;-69